createdAt,value
2019-04-25T00:00:44.795Z,10.60
2019-04-25T00:03:14.574Z,10.60
2019-04-25T00:05:44.734Z,10.60
2019-04-25T00:08:14.300Z,10.40
2019-04-25T00:10:43.865Z,10.30
2019-04-25T00:13:13.702Z,10.30
2019-04-25T00:15:44.879Z,10.40
2019-04-25T00:18:14.224Z,10.30
2019-04-25T00:20:45.199Z,10.20
2019-04-25T00:23:16.152Z,10.20
2019-04-25T00:26:05.269Z,10.00
2019-04-25T00:28:34.663Z,10.00
2019-04-25T00:31:05.251Z,10.00
2019-04-25T00:33:34.663Z,9.90
2019-04-25T00:36:04.025Z,10.00
2019-04-25T00:38:33.469Z,9.70
2019-04-25T00:41:02.870Z,9.90
2019-04-25T00:43:32.558Z,9.80
2019-04-25T00:46:01.905Z,9.80
2019-04-25T00:48:31.754Z,9.90
2019-04-25T00:51:01.950Z,10.00
2019-04-25T00:53:32.410Z,10.10
2019-04-25T00:56:01.887Z,9.90
2019-04-25T00:58:35.755Z,9.90
2019-04-25T01:01:18.543Z,9.90
2019-04-25T01:03:49.326Z,10.00
2019-04-25T01:06:18.724Z,10.00
2019-04-25T01:08:48.050Z,10.00
2019-04-25T01:11:17.449Z,9.90
2019-04-25T01:13:46.780Z,10.00
2019-04-25T01:16:16.322Z,10.10
2019-04-25T01:18:46.642Z,10.10
2019-04-25T01:21:16.212Z,10.10
2019-04-25T01:23:45.856Z,10.20
2019-04-25T01:26:15.635Z,10.20
2019-04-25T01:28:46.112Z,10.30
2019-04-25T01:31:17.593Z,10.10
2019-04-25T01:33:46.926Z,10.00
2019-04-25T01:36:20.956Z,10.10
2019-04-25T01:38:53.633Z,10.20
2019-04-25T01:41:30.504Z,10.20
2019-04-25T01:44:01.533Z,10.40
2019-04-25T01:46:31.479Z,10.40
2019-04-25T01:49:00.794Z,10.30
2019-04-25T01:51:30.202Z,10.30
2019-04-25T01:53:59.525Z,10.20
2019-04-25T01:56:28.975Z,10.20
2019-04-25T01:58:58.359Z,10.50
2019-04-25T02:01:27.891Z,10.50
2019-04-25T02:03:57.279Z,10.40
2019-04-25T02:06:26.751Z,10.60
2019-04-25T02:08:56.289Z,10.90
2019-04-25T02:11:28.222Z,11.00
2019-04-25T02:13:58.867Z,10.90
2019-04-25T02:16:28.289Z,10.60
2019-04-25T02:18:57.993Z,10.20
2019-04-25T02:21:27.308Z,10.00
2019-04-25T02:23:56.724Z,10.30
2019-04-25T02:26:26.033Z,10.50
2019-04-25T02:28:56.465Z,10.50
2019-04-25T02:31:26.551Z,10.30
2019-04-25T02:33:58.823Z,10.10
2019-04-25T02:36:27.127Z,9.90
2019-04-25T02:39:00.542Z,9.90
2019-04-25T02:41:27.672Z,9.90
2019-04-25T02:44:01.395Z,10.00
2019-04-25T02:46:29.706Z,10.00
2019-04-25T02:49:29.324Z,10.00
2019-04-25T02:51:51.659Z,9.90
2019-04-25T02:54:20.993Z,9.80
2019-04-25T02:56:50.303Z,9.70
2019-04-25T02:59:19.781Z,9.80
2019-04-25T03:01:49.328Z,9.80
2019-04-25T03:04:18.668Z,9.70
2019-04-25T03:06:47.996Z,9.80
2019-04-25T03:09:17.316Z,9.80
2019-04-25T03:11:47.744Z,9.80
2019-04-25T03:14:17.237Z,9.70
2019-04-25T03:16:46.690Z,9.70
2019-04-25T03:19:35.797Z,9.80
2019-04-25T03:22:10.065Z,10.00
2019-04-25T03:24:38.058Z,10.00
2019-04-25T03:27:07.472Z,10.00
2019-04-25T03:29:36.831Z,10.10
2019-04-25T03:32:09.836Z,9.90
2019-04-25T03:34:37.293Z,9.80
2019-04-25T03:37:07.586Z,9.80
2019-04-25T03:39:37.137Z,9.80
2019-04-25T03:42:06.443Z,9.60
2019-04-25T03:44:35.874Z,9.70
2019-04-25T03:47:07.240Z,9.60
2019-04-25T03:49:36.317Z,9.50
2019-04-25T03:52:06.423Z,9.40
2019-04-25T03:54:35.839Z,9.50
2019-04-25T03:57:06.648Z,9.50
2019-04-25T03:59:36.288Z,9.90
2019-04-25T04:02:07.006Z,9.90
2019-04-25T04:04:36.722Z,9.60
2019-04-25T04:07:08.814Z,9.50
2019-04-25T04:09:37.108Z,9.40
2019-04-25T04:12:06.423Z,9.40
2019-04-25T04:14:35.750Z,9.10
2019-04-25T04:17:21.877Z,9.20
2019-04-25T04:19:55.918Z,9.00
2019-04-25T04:22:45.007Z,9.10
2019-04-25T04:25:16.049Z,9.00
2019-04-25T04:27:45.331Z,9.10
2019-04-25T04:30:15.370Z,9.20
2019-04-25T04:32:44.735Z,9.20
2019-04-25T04:35:15.108Z,9.40
2019-04-25T04:37:45.403Z,9.50
2019-04-25T04:40:17.261Z,9.40
2019-04-25T04:42:45.874Z,9.70
2019-04-25T04:45:15.771Z,10.20
2019-04-25T04:47:46.382Z,10.20
2019-04-25T04:50:16.648Z,10.20
2019-04-25T04:52:46.085Z,10.00
2019-04-25T04:55:17.240Z,9.90
2019-04-25T04:57:46.557Z,9.80
2019-04-25T05:00:16.825Z,9.80
2019-04-25T05:03:04.491Z,9.70
2019-04-25T05:05:44.728Z,9.50
2019-04-25T05:08:16.407Z,9.60
2019-04-25T05:10:46.596Z,9.60
2019-04-25T05:13:16.815Z,9.60
2019-04-25T05:15:47.372Z,9.50
2019-04-25T05:18:33.021Z,9.50
2019-04-25T05:20:47.690Z,9.70
2019-04-25T05:23:17.169Z,9.70
2019-04-25T05:25:46.515Z,10.10
2019-04-25T05:28:17.922Z,10.30
2019-04-25T05:30:57.076Z,10.50
2019-04-25T05:33:28.179Z,10.70
2019-04-25T05:35:57.520Z,10.80
2019-04-25T05:38:26.917Z,10.80
2019-04-25T05:41:00.691Z,10.60
2019-04-25T05:43:30.009Z,10.50
2019-04-25T05:45:59.430Z,10.70
2019-04-25T05:48:28.738Z,11.00
2019-04-25T05:50:58.072Z,10.90
2019-04-25T05:53:27.383Z,11.00
2019-04-25T05:55:56.792Z,11.00
2019-04-25T05:58:27.016Z,10.90
2019-04-25T06:00:56.782Z,11.00
2019-04-25T06:03:26.588Z,11.70
2019-04-25T06:05:56.815Z,11.90
2019-04-25T06:08:28.071Z,12.10
2019-04-25T06:10:59.182Z,12.00
2019-04-25T06:13:33.389Z,11.70
2019-04-25T06:16:04.430Z,11.50
2019-04-25T06:18:35.389Z,11.50
2019-04-25T06:21:06.297Z,11.80
2019-04-25T06:23:54.324Z,12.20
2019-04-25T06:26:34.702Z,12.40
2019-04-25T06:28:59.512Z,12.50
2019-04-25T06:31:26.903Z,12.70
2019-04-25T06:33:56.767Z,12.80
2019-04-25T06:36:27.061Z,12.90
2019-04-25T06:38:56.584Z,12.80
2019-04-25T06:41:27.035Z,12.90
2019-04-25T06:43:58.208Z,13.10
2019-04-25T06:46:44.222Z,13.20
2019-04-25T06:49:27.832Z,13.30
2019-04-25T06:51:57.198Z,13.40
2019-04-25T06:54:27.195Z,13.50
2019-04-25T06:56:57.409Z,13.60
2019-04-25T06:59:28.544Z,13.70
2019-04-25T07:01:58.034Z,13.80
2019-04-25T07:04:28.053Z,13.90
2019-04-25T07:07:09.641Z,14.00
2019-04-25T07:09:30.873Z,14.10
2019-04-25T07:12:00.558Z,14.10
2019-04-25T07:14:30.005Z,14.30
2019-04-25T07:16:59.306Z,14.40
2019-04-25T07:19:28.662Z,14.50
2019-04-25T07:21:57.977Z,14.60
2019-04-25T07:24:27.396Z,14.70
2019-04-25T07:26:58.425Z,14.90
2019-04-25T07:29:45.612Z,14.90
2019-04-25T07:32:31.468Z,15.10
2019-04-25T07:35:00.823Z,15.20
2019-04-25T07:37:30.155Z,15.40
2019-04-25T07:39:59.506Z,15.60
2019-04-25T07:42:29.746Z,15.80
2019-04-25T07:44:59.274Z,16.00
2019-04-25T07:47:29.285Z,16.10
2019-04-25T07:49:58.930Z,16.30
2019-04-25T07:52:28.821Z,16.40
2019-04-25T07:54:58.228Z,16.50
2019-04-25T07:57:27.942Z,16.60
2019-04-25T07:59:57.421Z,16.70
2019-04-25T08:02:27.953Z,16.80
2019-04-25T08:04:57.441Z,17.00
2019-04-25T08:07:28.022Z,17.10
2019-04-25T08:09:57.579Z,17.10
2019-04-25T08:12:28.239Z,17.20
2019-04-25T08:14:59.353Z,17.30
2019-04-25T08:17:30.540Z,17.40
2019-04-25T08:20:00.033Z,17.50
2019-04-25T08:22:30.107Z,17.50
2019-04-25T08:24:59.659Z,17.60
2019-04-25T08:27:28.977Z,17.70
2019-04-25T08:29:58.318Z,17.80
2019-04-25T08:32:27.641Z,17.90
2019-04-25T08:34:57.068Z,18.00
2019-04-25T08:37:26.396Z,18.10
2019-04-25T08:39:55.726Z,18.20
2019-04-25T08:42:25.111Z,18.30
2019-04-25T08:44:54.447Z,18.30
2019-04-25T08:47:24.356Z,18.40
2019-04-25T08:50:26.346Z,18.50
2019-04-25T08:52:44.328Z,18.70
2019-04-25T08:55:32.977Z,18.80
2019-04-25T08:58:04.297Z,18.90
2019-04-25T09:01:01.160Z,19.00
2019-04-25T09:03:26.396Z,19.10
2019-04-25T09:05:56.017Z,19.20
2019-04-25T09:08:25.353Z,19.30
2019-04-25T09:10:54.765Z,19.40
2019-04-25T09:13:24.086Z,19.50
2019-04-25T09:15:54.067Z,19.50
2019-04-25T09:18:24.094Z,19.60
2019-04-25T09:20:54.098Z,19.70
2019-04-25T09:23:23.688Z,19.80
2019-04-25T09:25:54.424Z,19.90
2019-04-25T09:28:24.005Z,20.00
2019-04-25T09:30:54.024Z,20.10
2019-04-25T09:33:23.547Z,20.10
2019-04-25T09:35:54.093Z,20.20
2019-04-25T09:38:24.403Z,20.30
2019-04-25T09:40:54.241Z,20.40
2019-04-25T09:43:23.718Z,20.40
2019-04-25T09:46:13.308Z,20.40
2019-04-25T09:48:45.526Z,20.50
2019-04-25T09:51:19.223Z,20.70
2019-04-25T09:53:51.466Z,20.70
2019-04-25T09:56:25.311Z,20.70
2019-04-25T09:59:03.662Z,20.90
2019-04-25T10:01:33.868Z,21.00
2019-04-25T10:04:03.588Z,21.10
2019-04-25T10:06:33.370Z,21.20
2019-04-25T10:09:04.998Z,21.10
2019-04-25T10:11:34.923Z,21.30
2019-04-25T10:14:28.565Z,21.30
2019-04-25T10:16:57.902Z,21.40
2019-04-25T10:19:27.357Z,21.60
2019-04-25T10:21:56.762Z,21.60
2019-04-25T10:24:26.220Z,21.60
2019-04-25T10:26:55.567Z,21.70
2019-04-25T10:29:25.057Z,21.60
2019-04-25T10:31:55.829Z,21.70
2019-04-25T10:34:25.584Z,21.80
2019-04-25T10:36:54.996Z,22.00
2019-04-25T10:39:24.938Z,22.10
2019-04-25T10:41:54.540Z,22.10
2019-04-25T10:44:24.539Z,22.20
2019-04-25T10:46:54.684Z,22.40
2019-04-25T10:49:24.241Z,22.40
2019-04-25T10:51:53.842Z,22.50
2019-04-25T10:54:23.160Z,22.60
2019-04-25T10:56:52.823Z,22.70
2019-04-25T10:59:23.567Z,22.90
2019-04-25T11:01:53.931Z,23.00
2019-04-25T11:04:25.763Z,23.10
2019-04-25T11:06:55.731Z,23.30
2019-04-25T11:09:26.049Z,24.00
2019-04-25T11:11:55.490Z,25.00
2019-04-25T11:14:25.916Z,25.90
2019-04-25T11:16:55.362Z,26.60
2019-04-25T11:19:24.800Z,27.10
2019-04-25T11:21:54.459Z,27.70
2019-04-25T11:24:23.901Z,27.80
2019-04-25T11:26:55.139Z,27.70
2019-04-25T11:29:24.780Z,27.10
2019-04-25T11:31:54.311Z,26.90
2019-04-25T11:34:23.966Z,27.10
2019-04-25T11:36:53.365Z,27.20
2019-04-25T11:39:30.407Z,27.00
2019-04-25T11:41:59.865Z,27.10
2019-04-25T11:44:29.294Z,27.10
2019-04-25T11:46:58.878Z,27.30
2019-04-25T11:49:28.209Z,27.70
2019-04-25T11:51:57.676Z,27.30
2019-04-25T11:54:27.219Z,27.00
2019-04-25T11:56:56.601Z,27.00
2019-04-25T11:59:26.009Z,26.90
2019-04-25T12:01:57.319Z,27.00
2019-04-25T12:04:26.557Z,27.10
2019-04-25T12:06:55.877Z,27.00
2019-04-25T12:09:25.287Z,26.90
2019-04-25T12:11:55.922Z,26.80
2019-04-25T12:14:25.536Z,26.90
2019-04-25T12:16:56.150Z,26.90
2019-04-25T12:19:34.508Z,26.80
2019-04-25T12:21:58.268Z,26.90
2019-04-25T12:24:27.601Z,26.80
2019-04-25T12:26:56.988Z,26.90
2019-04-25T12:29:26.327Z,27.00
2019-04-25T12:31:56.355Z,27.00
2019-04-25T12:34:25.738Z,27.10
2019-04-25T12:36:55.142Z,27.20
2019-04-25T12:39:24.720Z,27.10
2019-04-25T12:41:55.701Z,27.10
2019-04-25T12:44:29.698Z,27.10
2019-04-25T12:47:00.653Z,27.30
2019-04-25T12:49:30.001Z,27.50
2019-04-25T12:51:59.386Z,27.50
2019-04-25T12:54:28.731Z,27.50
2019-04-25T12:56:58.138Z,27.60
2019-04-25T12:59:27.472Z,27.70
2019-04-25T13:01:57.446Z,27.60
2019-04-25T13:04:26.767Z,27.60
2019-04-25T13:06:56.155Z,27.70
2019-04-25T13:09:25.487Z,27.70
2019-04-25T13:11:54.810Z,27.80
2019-04-25T13:14:25.082Z,27.80
2019-04-25T13:16:54.559Z,27.80
2019-04-25T13:19:26.033Z,27.80
2019-04-25T13:21:54.940Z,27.60
2019-04-25T13:24:24.340Z,27.40
2019-04-25T13:27:04.304Z,27.60
2019-04-25T13:29:53.151Z,27.40
2019-04-25T13:32:39.509Z,27.40
2019-04-25T13:35:16.351Z,27.50
2019-04-25T13:37:45.696Z,27.30
2019-04-25T13:40:17.117Z,27.20
2019-04-25T13:42:46.744Z,27.20
2019-04-25T13:45:16.404Z,27.10
2019-04-25T13:47:45.880Z,26.90
2019-04-25T13:50:16.629Z,27.10
2019-04-25T13:52:45.949Z,27.10
2019-04-25T13:55:15.293Z,27.00
2019-04-25T13:57:44.623Z,27.10
2019-04-25T14:00:14.429Z,27.00
2019-04-25T14:02:43.990Z,27.20
2019-04-25T14:05:14.672Z,27.40
2019-04-25T14:07:44.030Z,27.30
2019-04-25T14:10:14.300Z,27.20
2019-04-25T14:12:43.964Z,27.00
2019-04-25T14:15:15.656Z,27.10
2019-04-25T14:17:46.620Z,27.10
2019-04-25T14:20:20.857Z,27.30
2019-04-25T14:22:51.086Z,27.30
2019-04-25T14:25:20.675Z,27.30
2019-04-25T14:27:50.007Z,27.40
2019-04-25T14:30:22.289Z,27.50
2019-04-25T14:32:53.640Z,27.70
2019-04-25T14:35:24.099Z,27.70
2019-04-25T14:37:53.937Z,27.90
2019-04-25T14:40:25.700Z,28.30
2019-04-25T14:42:54.830Z,28.30
2019-04-25T14:45:24.483Z,28.10
2019-04-25T14:47:53.773Z,28.00
2019-04-25T14:50:23.180Z,28.00
2019-04-25T14:52:52.503Z,28.10
2019-04-25T14:55:27.348Z,28.10
2019-04-25T14:57:57.613Z,28.00
2019-04-25T15:00:28.674Z,27.80
2019-04-25T15:02:58.043Z,28.00
2019-04-25T15:05:27.340Z,27.90
2019-04-25T15:07:56.725Z,27.90
2019-04-25T15:10:26.539Z,27.70
2019-04-25T15:12:56.029Z,27.90
2019-04-25T15:15:26.560Z,27.80
2019-04-25T15:17:56.001Z,27.60
2019-04-25T15:20:26.160Z,27.60
2019-04-25T15:22:55.550Z,27.60
2019-04-25T15:25:25.120Z,27.60
2019-04-25T15:27:55.378Z,27.60
2019-04-25T15:30:31.942Z,27.60
2019-04-25T15:33:01.390Z,27.60
2019-04-25T15:35:32.377Z,27.60
2019-04-25T15:38:05.765Z,27.40
2019-04-25T15:40:41.127Z,27.30
2019-04-25T15:43:14.860Z,27.30
2019-04-25T15:46:03.766Z,27.40
2019-04-25T15:48:33.182Z,27.10
2019-04-25T15:51:02.539Z,27.00
2019-04-25T15:53:31.919Z,27.10
2019-04-25T15:56:01.265Z,26.90
2019-04-25T15:58:30.600Z,26.90
2019-04-25T16:01:00.839Z,26.70
2019-04-25T16:03:30.826Z,26.50
2019-04-25T16:06:00.198Z,26.40
2019-04-25T16:08:29.523Z,26.40
2019-04-25T16:10:58.860Z,26.20
2019-04-25T16:13:28.292Z,26.20
2019-04-25T16:15:57.764Z,26.30
2019-04-25T16:18:28.407Z,26.20
2019-04-25T16:20:57.830Z,26.20
2019-04-25T16:23:27.831Z,26.10
2019-04-25T16:25:58.208Z,26.00
2019-04-25T16:28:27.707Z,25.90
2019-04-25T16:30:57.028Z,25.80
2019-04-25T16:33:26.706Z,26.00
2019-04-25T16:35:56.031Z,26.00
2019-04-25T16:38:26.314Z,26.20
2019-04-25T16:40:56.200Z,26.40
2019-04-25T16:43:27.220Z,26.30
2019-04-25T16:45:56.785Z,26.10
2019-04-25T16:48:26.118Z,26.20
2019-04-25T16:50:55.428Z,26.20
2019-04-25T16:53:24.770Z,26.10
2019-04-25T16:55:54.091Z,25.90
2019-04-25T16:58:23.543Z,25.90
2019-04-25T17:01:05.740Z,25.80
2019-04-25T17:03:36.017Z,25.80
2019-04-25T17:06:06.541Z,25.60
2019-04-25T17:08:37.741Z,25.60
2019-04-25T17:11:10.577Z,25.40
2019-04-25T17:13:42.537Z,25.40
2019-04-25T17:16:32.569Z,25.40
2019-04-25T17:19:09.557Z,25.30
2019-04-25T17:21:39.430Z,25.10
2019-04-25T17:24:08.839Z,25.20
2019-04-25T17:26:39.875Z,25.10
2019-04-25T17:29:10.847Z,24.80
2019-04-25T17:31:59.937Z,24.80
2019-04-25T17:34:31.794Z,24.90
2019-04-25T17:37:05.897Z,24.80
2019-04-25T17:39:39.948Z,24.80
2019-04-25T17:42:09.269Z,24.70
2019-04-25T17:44:38.612Z,24.70
2019-04-25T17:47:07.997Z,24.60
2019-04-25T17:49:37.332Z,24.60
2019-04-25T17:52:06.719Z,24.60
2019-04-25T17:54:36.647Z,24.50
2019-04-25T17:57:06.436Z,24.40
2019-04-25T17:59:36.827Z,24.40
2019-04-25T18:02:06.946Z,24.20
2019-04-25T18:04:38.255Z,24.40
2019-04-25T18:07:07.930Z,24.40
2019-04-25T18:09:37.388Z,24.10
2019-04-25T18:12:06.773Z,23.50
2019-04-25T18:14:36.433Z,23.30
2019-04-25T18:17:05.908Z,23.00
2019-04-25T18:19:36.884Z,22.70
2019-04-25T18:22:11.115Z,22.70
2019-04-25T18:24:47.855Z,22.60
2019-04-25T18:27:21.751Z,22.20
2019-04-25T18:29:51.169Z,21.80
2019-04-25T18:32:20.632Z,21.50
2019-04-25T18:34:54.289Z,21.20
2019-04-25T18:37:25.292Z,20.90
2019-04-25T18:39:56.269Z,20.60
2019-04-25T18:42:44.164Z,20.40
2019-04-25T18:45:18.050Z,20.40
2019-04-25T18:47:47.376Z,20.20
2019-04-25T18:50:18.501Z,19.80
2019-04-25T18:53:05.538Z,19.90
2019-04-25T18:55:37.477Z,19.70
2019-04-25T18:58:11.309Z,19.40
2019-04-25T19:00:58.737Z,19.40
2019-04-25T19:03:41.871Z,19.30
2019-04-25T19:06:15.803Z,19.20
2019-04-25T19:08:45.199Z,19.10
2019-04-25T19:11:14.581Z,18.70
2019-04-25T19:13:43.953Z,18.20
2019-04-25T19:16:13.477Z,18.00
2019-04-25T19:18:45.376Z,18.00
2019-04-25T19:21:14.421Z,17.90
2019-04-25T19:23:43.908Z,17.70
2019-04-25T19:26:13.257Z,17.60
2019-04-25T19:28:43.201Z,17.40
2019-04-25T19:31:12.600Z,17.20
2019-04-25T19:33:42.127Z,17.30
2019-04-25T19:36:11.489Z,17.00
2019-04-25T19:38:41.900Z,17.00
2019-04-25T19:41:13.091Z,16.90
2019-04-25T19:43:53.020Z,16.50
2019-04-25T19:46:24.001Z,16.30
2019-04-25T19:48:53.407Z,16.10
2019-04-25T19:51:22.864Z,16.40
2019-04-25T19:53:52.192Z,16.40
2019-04-25T19:56:21.528Z,16.00
2019-04-25T19:58:50.853Z,15.80
2019-04-25T20:01:20.269Z,15.80
2019-04-25T20:03:58.109Z,15.90
2019-04-25T20:06:42.235Z,16.10
2019-04-25T20:09:14.060Z,15.90
2019-04-25T20:11:45.269Z,15.90
2019-04-25T20:14:14.636Z,15.90
2019-04-25T20:16:46.114Z,16.00
2019-04-25T20:19:15.579Z,16.00
2019-04-25T20:21:45.786Z,15.90
2019-04-25T20:24:15.449Z,15.60
2019-04-25T20:26:45.041Z,15.70
2019-04-25T20:29:15.508Z,15.70
2019-04-25T20:31:45.281Z,15.40
2019-04-25T20:34:14.598Z,15.20
2019-04-25T20:36:44.620Z,15.00
2019-04-25T20:39:14.941Z,14.80
2019-04-25T20:41:44.287Z,15.20
2019-04-25T20:44:13.642Z,15.00
2019-04-25T20:46:43.404Z,15.30
2019-04-25T20:49:12.808Z,15.10
2019-04-25T20:51:42.148Z,14.70
2019-04-25T20:54:11.604Z,14.80
2019-04-25T20:56:40.935Z,14.90
2019-04-25T20:59:10.298Z,14.90
2019-04-25T21:01:39.706Z,14.80
2019-04-25T21:04:13.232Z,14.50
2019-04-25T21:06:41.733Z,14.70
2019-04-25T21:09:11.145Z,14.40
2019-04-25T21:11:40.485Z,14.00
2019-04-25T21:14:11.582Z,13.90
2019-04-25T21:16:57.291Z,14.00
2019-04-25T21:19:28.257Z,14.30
2019-04-25T21:21:58.750Z,14.50
2019-04-25T21:24:28.065Z,14.70
2019-04-25T21:26:57.472Z,14.50
2019-04-25T21:29:26.859Z,14.40
2019-04-25T21:31:56.753Z,14.30
2019-04-25T21:34:26.135Z,14.30
2019-04-25T21:36:57.600Z,14.40
2019-04-25T21:39:28.872Z,14.30
2019-04-25T21:42:02.985Z,13.80
2019-04-25T21:44:32.584Z,14.20
2019-04-25T21:47:01.911Z,14.10
2019-04-25T21:49:31.910Z,14.00
2019-04-25T21:52:01.248Z,14.20
2019-04-25T21:54:30.560Z,14.00
2019-04-25T21:57:00.077Z,14.10
2019-04-25T21:59:29.723Z,13.80
2019-04-25T22:02:00.232Z,14.00
2019-04-25T22:04:38.572Z,13.70
2019-04-25T22:07:00.845Z,13.70
2019-04-25T22:09:31.091Z,13.80
2019-04-25T22:12:01.220Z,13.70
2019-04-25T22:14:30.573Z,13.30
2019-04-25T22:17:00.284Z,13.20
2019-04-25T22:19:29.981Z,13.10
2019-04-25T22:22:00.563Z,13.50
2019-04-25T22:24:30.003Z,13.20
2019-04-25T22:27:00.986Z,13.30
2019-04-25T22:29:30.308Z,13.90
2019-04-25T22:32:01.539Z,13.90
2019-04-25T22:34:52.020Z,13.80
2019-04-25T22:37:15.446Z,13.40
2019-04-25T22:39:44.960Z,13.60
2019-04-25T22:42:14.362Z,13.50
2019-04-25T22:44:43.753Z,13.80
2019-04-25T22:47:13.082Z,13.70
2019-04-25T22:49:42.397Z,13.50
2019-04-25T22:52:11.925Z,13.60
2019-04-25T22:54:41.240Z,13.70
2019-04-25T22:57:10.754Z,13.60
2019-04-25T22:59:40.256Z,13.40
2019-04-25T23:02:11.669Z,13.20
2019-04-25T23:04:45.900Z,13.40
2019-04-25T23:07:15.705Z,13.70
2019-04-25T23:09:46.075Z,13.70
2019-04-25T23:12:15.721Z,13.70
2019-04-25T23:14:45.041Z,13.70
2019-04-25T23:17:14.367Z,13.50
2019-04-25T23:19:44.002Z,13.60
2019-04-25T23:22:13.625Z,13.70
2019-04-25T23:24:48.080Z,13.30
2019-04-25T23:27:28.073Z,13.40
2019-04-25T23:29:57.379Z,13.20
2019-04-25T23:32:26.991Z,13.20
2019-04-25T23:34:56.301Z,13.40
2019-04-25T23:37:25.718Z,13.30
2019-04-25T23:39:55.029Z,13.20
2019-04-25T23:42:24.384Z,13.20
2019-04-25T23:44:53.967Z,13.10
2019-04-25T23:47:23.408Z,12.90
2019-04-25T23:49:52.767Z,12.50
2019-04-25T23:52:22.263Z,12.20
2019-04-25T23:54:51.601Z,12.00
2019-04-25T23:57:21.009Z,12.20
2019-04-25T23:59:50.500Z,12.30
